sensor_id;sensor_type;location;lat;lon;timestamp;P1;durP1;ratioP1;P2;durP2;ratioP2
67160;SDS011;54088;52.238;21.104;2022-12-01T00:00:14;18.33;;;11.35;;
67160;SDS011;54088;52.238;21.104;2022-12-01T00:02:40;18.45;;;11.50;;
67160;SDS011;54088;52.238;21.104;2022-12-01T00:05:05;18.42;;;12.52;;
67160;SDS011;54088;52.238;21.104;2022-12-01T00:07:31;16.15;;;11.20;;
67160;SDS011;54088;52.238;21.104;2022-12-01T00:09:57;18.50;;;12.02;;
67160;SDS011;54088;52.238;21.104;2022-12-01T00:12:41;18.15;;;12.00;;
67160;SDS011;54088;52.238;21.104;2022-12-01T00:15:09;17.38;;;12.35;;
67160;SDS011;54088;52.238;21.104;2022-12-01T00:17:36;16.75;;;11.18;;
67160;SDS011;54088;52.238;21.104;2022-12-01T00:20:02;16.27;;;10.48;;
67160;SDS011;54088;52.238;21.104;2022-12-01T00:22:29;17.52;;;11.13;;
67160;SDS011;54088;52.238;21.104;2022-12-01T00:24:54;18.10;;;12.13;;
67160;SDS011;54088;52.238;21.104;2022-12-01T00:27:20;17.70;;;11.43;;
67160;SDS011;54088;52.238;21.104;2022-12-01T00:29:46;20.48;;;13.20;;
67160;SDS011;54088;52.238;21.104;2022-12-01T00:32:11;18.05;;;12.23;;
67160;SDS011;54088;52.238;21.104;2022-12-01T00:34:37;20.33;;;11.57;;
67160;SDS011;54088;52.238;21.104;2022-12-01T00:37:03;19.60;;;12.07;;
67160;SDS011;54088;52.238;21.104;2022-12-01T00:39:29;19.50;;;12.35;;
67160;SDS011;54088;52.238;21.104;2022-12-01T00:41:55;17.98;;;11.48;;
67160;SDS011;54088;52.238;21.104;2022-12-01T00:44:20;18.23;;;11.48;;
67160;SDS011;54088;52.238;21.104;2022-12-01T00:46:46;19.95;;;12.95;;
67160;SDS011;54088;52.238;21.104;2022-12-01T00:49:12;19.08;;;12.30;;
67160;SDS011;54088;52.238;21.104;2022-12-01T00:51:38;19.52;;;12.43;;
67160;SDS011;54088;52.238;21.104;2022-12-01T00:54:03;19.05;;;12.32;;
67160;SDS011;54088;52.238;21.104;2022-12-01T00:56:29;18.65;;;12.52;;
67160;SDS011;54088;52.238;21.104;2022-12-01T00:58:55;20.83;;;12.63;;
67160;SDS011;54088;52.238;21.104;2022-12-01T01:01:21;19.13;;;13.40;;
67160;SDS011;54088;52.238;21.104;2022-12-01T01:03:47;21.42;;;12.82;;
67160;SDS011;54088;52.238;21.104;2022-12-01T01:06:12;19.95;;;13.02;;
67160;SDS011;54088;52.238;21.104;2022-12-01T01:08:39;20.33;;;12.65;;
67160;SDS011;54088;52.238;21.104;2022-12-01T01:11:05;20.13;;;13.40;;
67160;SDS011;54088;52.238;21.104;2022-12-01T01:13:32;18.52;;;11.85;;
67160;SDS011;54088;52.238;21.104;2022-12-01T01:15:59;18.92;;;12.13;;
67160;SDS011;54088;52.238;21.104;2022-12-01T01:18:30;19.67;;;12.90;;
67160;SDS011;54088;52.238;21.104;2022-12-01T01:23:26;19.45;;;12.02;;
67160;SDS011;54088;52.238;21.104;2022-12-01T01:25:51;18.92;;;12.77;;
67160;SDS011;54088;52.238;21.104;2022-12-01T01:28:17;20.50;;;13.05;;
67160;SDS011;54088;52.238;21.104;2022-12-01T01:30:44;19.55;;;13.70;;
67160;SDS011;54088;52.238;21.104;2022-12-01T01:33:10;20.75;;;13.43;;
67160;SDS011;54088;52.238;21.104;2022-12-01T01:35:36;22.17;;;12.70;;
67160;SDS011;54088;52.238;21.104;2022-12-01T01:38:02;18.25;;;13.10;;
67160;SDS011;54088;52.238;21.104;2022-12-01T01:40:28;21.13;;;14.07;;
67160;SDS011;54088;52.238;21.104;2022-12-01T01:42:53;18.88;;;12.90;;
67160;SDS011;54088;52.238;21.104;2022-12-01T01:45:23;20.20;;;13.38;;
67160;SDS011;54088;52.238;21.104;2022-12-01T01:47:52;20.77;;;13.18;;
67160;SDS011;54088;52.238;21.104;2022-12-01T01:50:21;23.23;;;14.10;;
67160;SDS011;54088;52.238;21.104;2022-12-01T01:52:50;23.83;;;14.77;;
67160;SDS011;54088;52.238;21.104;2022-12-01T01:55:25;20.15;;;13.40;;
67160;SDS011;54088;52.238;21.104;2022-12-01T01:57:53;21.65;;;14.10;;
67160;SDS011;54088;52.238;21.104;2022-12-01T02:00:19;22.35;;;14.63;;
67160;SDS011;54088;52.238;21.104;2022-12-01T02:02:46;20.25;;;14.68;;
67160;SDS011;54088;52.238;21.104;2022-12-01T02:05:23;20.90;;;14.70;;
67160;SDS011;54088;52.238;21.104;2022-12-01T02:07:51;22.75;;;14.88;;
67160;SDS011;54088;52.238;21.104;2022-12-01T02:10:19;21.58;;;13.55;;
67160;SDS011;54088;52.238;21.104;2022-12-01T02:32:22;22.27;;;15.45;;
67160;SDS011;54088;52.238;21.104;2022-12-01T02:38:20;21.65;;;14.13;;
67160;SDS011;54088;52.238;21.104;2022-12-01T02:40:32;20.45;;;14.05;;
67160;SDS011;54088;52.238;21.104;2022-12-01T02:43:09;23.17;;;15.07;;
67160;SDS011;54088;52.238;21.104;2022-12-01T02:45:52;22.98;;;16.23;;
67160;SDS011;54088;52.238;21.104;2022-12-01T02:48:24;22.73;;;15.05;;
67160;SDS011;54088;52.238;21.104;2022-12-01T02:50:57;22.85;;;15.32;;
67160;SDS011;54088;52.238;21.104;2022-12-01T02:53:26;22.92;;;15.30;;
67160;SDS011;54088;52.238;21.104;2022-12-01T02:55:54;22.45;;;14.13;;
67160;SDS011;54088;52.238;21.104;2022-12-01T02:58:22;20.17;;;13.98;;
67160;SDS011;54088;52.238;21.104;2022-12-01T03:17:16;22.48;;;14.40;;
67160;SDS011;54088;52.238;21.104;2022-12-01T03:19:52;21.38;;;13.93;;
67160;SDS011;54088;52.238;21.104;2022-12-01T03:22:24;22.13;;;15.00;;
67160;SDS011;54088;52.238;21.104;2022-12-01T03:24:53;24.65;;;15.95;;
67160;SDS011;54088;52.238;21.104;2022-12-01T03:27:24;22.42;;;14.73;;
67160;SDS011;54088;52.238;21.104;2022-12-01T03:29:54;22.10;;;14.32;;
67160;SDS011;54088;52.238;21.104;2022-12-01T03:35:36;23.58;;;15.35;;
67160;SDS011;54088;52.238;21.104;2022-12-01T03:37:55;24.45;;;16.25;;
67160;SDS011;54088;52.238;21.104;2022-12-01T03:40:28;24.95;;;15.85;;
67160;SDS011;54088;52.238;21.104;2022-12-01T03:42:57;25.33;;;15.63;;
67160;SDS011;54088;52.238;21.104;2022-12-01T03:45:29;23.48;;;15.20;;
67160;SDS011;54088;52.238;21.104;2022-12-01T03:48:11;24.77;;;17.42;;
67160;SDS011;54088;52.238;21.104;2022-12-01T03:50:44;24.20;;;15.70;;
67160;SDS011;54088;52.238;21.104;2022-12-01T03:53:21;24.92;;;15.55;;
67160;SDS011;54088;52.238;21.104;2022-12-01T03:55:52;23.92;;;16.20;;
67160;SDS011;54088;52.238;21.104;2022-12-01T03:58:30;23.70;;;16.27;;
67160;SDS011;54088;52.238;21.104;2022-12-01T04:01:00;24.95;;;15.38;;
67160;SDS011;54088;52.238;21.104;2022-12-01T04:03:27;23.33;;;15.45;;
67160;SDS011;54088;52.238;21.104;2022-12-01T04:05:53;25.95;;;17.05;;
67160;SDS011;54088;52.238;21.104;2022-12-01T04:08:19;25.77;;;16.60;;
67160;SDS011;54088;52.238;21.104;2022-12-01T04:10:45;25.25;;;16.50;;
67160;SDS011;54088;52.238;21.104;2022-12-01T04:13:11;23.52;;;14.50;;
67160;SDS011;54088;52.238;21.104;2022-12-01T04:15:46;23.52;;;15.02;;
67160;SDS011;54088;52.238;21.104;2022-12-01T04:18:13;22.55;;;14.52;;
67160;SDS011;54088;52.238;21.104;2022-12-01T04:20:38;21.63;;;13.68;;
67160;SDS011;54088;52.238;21.104;2022-12-01T04:23:04;26.90;;;17.25;;
67160;SDS011;54088;52.238;21.104;2022-12-01T04:25:30;23.35;;;14.70;;
67160;SDS011;54088;52.238;21.104;2022-12-01T04:27:55;22.17;;;15.57;;
67160;SDS011;54088;52.238;21.104;2022-12-01T04:30:21;25.52;;;15.30;;
67160;SDS011;54088;52.238;21.104;2022-12-01T04:32:46;21.85;;;15.05;;
67160;SDS011;54088;52.238;21.104;2022-12-01T04:35:12;22.08;;;14.57;;
67160;SDS011;54088;52.238;21.104;2022-12-01T04:37:38;24.30;;;15.68;;
67160;SDS011;54088;52.238;21.104;2022-12-01T04:40:04;21.77;;;14.15;;
67160;SDS011;54088;52.238;21.104;2022-12-01T04:42:30;21.08;;;14.73;;
67160;SDS011;54088;52.238;21.104;2022-12-01T04:44:56;23.02;;;15.90;;
67160;SDS011;54088;52.238;21.104;2022-12-01T04:47:22;23.13;;;14.63;;
67160;SDS011;54088;52.238;21.104;2022-12-01T04:49:47;22.63;;;15.15;;
67160;SDS011;54088;52.238;21.104;2022-12-01T04:52:13;23.55;;;15.90;;
67160;SDS011;54088;52.238;21.104;2022-12-01T04:54:39;24.63;;;15.68;;
67160;SDS011;54088;52.238;21.104;2022-12-01T04:57:04;22.10;;;15.20;;
67160;SDS011;54088;52.238;21.104;2022-12-01T04:59:30;24.10;;;15.77;;
67160;SDS011;54088;52.238;21.104;2022-12-01T05:01:56;25.27;;;15.60;;
67160;SDS011;54088;52.238;21.104;2022-12-01T05:04:21;24.17;;;16.27;;
67160;SDS011;54088;52.238;21.104;2022-12-01T05:06:47;24.48;;;15.57;;
67160;SDS011;54088;52.238;21.104;2022-12-01T05:09:13;24.10;;;16.00;;
67160;SDS011;54088;52.238;21.104;2022-12-01T05:11:40;20.48;;;13.88;;
67160;SDS011;54088;52.238;21.104;2022-12-01T05:14:05;22.88;;;15.38;;
67160;SDS011;54088;52.238;21.104;2022-12-01T05:16:31;22.80;;;15.15;;
67160;SDS011;54088;52.238;21.104;2022-12-01T05:19:02;23.55;;;15.60;;
67160;SDS011;54088;52.238;21.104;2022-12-01T05:21:47;22.23;;;15.57;;
67160;SDS011;54088;52.238;21.104;2022-12-01T05:24:14;22.38;;;15.13;;
67160;SDS011;54088;52.238;21.104;2022-12-01T05:26:41;23.13;;;14.95;;
67160;SDS011;54088;52.238;21.104;2022-12-01T05:29:08;21.98;;;14.82;;
67160;SDS011;54088;52.238;21.104;2022-12-01T05:31:35;21.33;;;14.30;;
67160;SDS011;54088;52.238;21.104;2022-12-01T05:34:00;22.17;;;15.27;;
67160;SDS011;54088;52.238;21.104;2022-12-01T05:36:26;21.17;;;14.23;;
67160;SDS011;54088;52.238;21.104;2022-12-01T05:38:52;21.20;;;14.68;;
67160;SDS011;54088;52.238;21.104;2022-12-01T05:41:18;21.33;;;14.60;;
67160;SDS011;54088;52.238;21.104;2022-12-01T05:43:44;20.48;;;14.52;;
67160;SDS011;54088;52.238;21.104;2022-12-01T05:46:10;18.98;;;13.93;;
67160;SDS011;54088;52.238;21.104;2022-12-01T05:48:35;19.83;;;14.85;;
67160;SDS011;54088;52.238;21.104;2022-12-01T05:51:08;19.77;;;13.82;;
67160;SDS011;54088;52.238;21.104;2022-12-01T05:53:34;22.55;;;15.45;;
67160;SDS011;54088;52.238;21.104;2022-12-01T05:56:00;21.05;;;14.68;;
67160;SDS011;54088;52.238;21.104;2022-12-01T05:58:26;20.00;;;13.73;;
67160;SDS011;54088;52.238;21.104;2022-12-01T06:00:51;21.45;;;14.70;;
67160;SDS011;54088;52.238;21.104;2022-12-01T06:03:17;21.45;;;14.93;;
67160;SDS011;54088;52.238;21.104;2022-12-01T06:05:43;21.77;;;14.75;;
67160;SDS011;54088;52.238;21.104;2022-12-01T06:08:08;20.63;;;14.48;;
67160;SDS011;54088;52.238;21.104;2022-12-01T06:10:34;19.75;;;13.85;;
67160;SDS011;54088;52.238;21.104;2022-12-01T06:12:59;19.90;;;14.15;;
67160;SDS011;54088;52.238;21.104;2022-12-01T06:15:25;19.60;;;13.48;;
67160;SDS011;54088;52.238;21.104;2022-12-01T06:17:51;20.23;;;14.55;;
67160;SDS011;54088;52.238;21.104;2022-12-01T06:20:17;18.95;;;13.38;;
67160;SDS011;54088;52.238;21.104;2022-12-01T06:22:42;20.77;;;14.00;;
67160;SDS011;54088;52.238;21.104;2022-12-01T06:25:08;20.90;;;14.25;;
67160;SDS011;54088;52.238;21.104;2022-12-01T06:27:34;22.52;;;14.10;;
67160;SDS011;54088;52.238;21.104;2022-12-01T06:30:00;20.30;;;14.35;;
67160;SDS011;54088;52.238;21.104;2022-12-01T06:32:26;23.17;;;15.40;;
67160;SDS011;54088;52.238;21.104;2022-12-01T06:34:51;22.73;;;15.57;;
67160;SDS011;54088;52.238;21.104;2022-12-01T06:37:17;22.55;;;14.82;;
67160;SDS011;54088;52.238;21.104;2022-12-01T06:39:43;22.10;;;14.90;;
67160;SDS011;54088;52.238;21.104;2022-12-01T06:42:08;21.38;;;14.70;;
67160;SDS011;54088;52.238;21.104;2022-12-01T06:44:34;21.65;;;14.10;;
67160;SDS011;54088;52.238;21.104;2022-12-01T06:47:00;21.60;;;14.52;;
67160;SDS011;54088;52.238;21.104;2022-12-01T06:49:25;20.30;;;15.05;;
67160;SDS011;54088;52.238;21.104;2022-12-01T06:51:51;18.92;;;13.65;;
67160;SDS011;54088;52.238;21.104;2022-12-01T06:54:16;19.48;;;13.55;;
67160;SDS011;54088;52.238;21.104;2022-12-01T06:56:42;20.30;;;14.18;;
67160;SDS011;54088;52.238;21.104;2022-12-01T06:59:09;22.17;;;16.55;;
67160;SDS011;54088;52.238;21.104;2022-12-01T07:01:35;24.92;;;16.58;;
67160;SDS011;54088;52.238;21.104;2022-12-01T07:04:01;22.10;;;14.77;;
67160;SDS011;54088;52.238;21.104;2022-12-01T07:06:28;22.10;;;15.02;;
67160;SDS011;54088;52.238;21.104;2022-12-01T07:08:54;20.60;;;14.73;;
67160;SDS011;54088;52.238;21.104;2022-12-01T07:11:20;22.17;;;15.50;;
67160;SDS011;54088;52.238;21.104;2022-12-01T07:13:46;22.38;;;15.13;;
67160;SDS011;54088;52.238;21.104;2022-12-01T07:16:13;21.33;;;14.75;;
67160;SDS011;54088;52.238;21.104;2022-12-01T07:18:40;22.98;;;15.85;;
67160;SDS011;54088;52.238;21.104;2022-12-01T07:21:09;23.88;;;16.00;;
67160;SDS011;54088;52.238;21.104;2022-12-01T07:23:37;21.30;;;15.70;;
67160;SDS011;54088;52.238;21.104;2022-12-01T07:26:04;24.42;;;15.30;;
67160;SDS011;54088;52.238;21.104;2022-12-01T07:28:37;22.60;;;16.45;;
67160;SDS011;54088;52.238;21.104;2022-12-01T07:31:21;22.88;;;14.50;;
67160;SDS011;54088;52.238;21.104;2022-12-01T07:33:47;22.02;;;14.88;;
67160;SDS011;54088;52.238;21.104;2022-12-01T07:36:13;22.30;;;15.45;;
67160;SDS011;54088;52.238;21.104;2022-12-01T07:38:39;23.10;;;15.18;;
67160;SDS011;54088;52.238;21.104;2022-12-01T07:41:12;23.15;;;16.48;;
67160;SDS011;54088;52.238;21.104;2022-12-01T07:43:39;21.73;;;14.75;;
67160;SDS011;54088;52.238;21.104;2022-12-01T07:48:32;22.92;;;16.58;;
67160;SDS011;54088;52.238;21.104;2022-12-01T07:50:58;21.00;;;15.05;;
67160;SDS011;54088;52.238;21.104;2022-12-01T07:53:24;22.42;;;16.27;;
67160;SDS011;54088;52.238;21.104;2022-12-01T07:55:50;24.25;;;15.70;;
67160;SDS011;54088;52.238;21.104;2022-12-01T07:58:16;22.25;;;15.98;;
67160;SDS011;54088;52.238;21.104;2022-12-01T08:00:42;20.60;;;14.73;;
67160;SDS011;54088;52.238;21.104;2022-12-01T08:03:07;20.38;;;15.07;;
67160;SDS011;54088;52.238;21.104;2022-12-01T08:05:33;24.80;;;16.08;;
67160;SDS011;54088;52.238;21.104;2022-12-01T08:07:59;20.88;;;14.50;;
67160;SDS011;54088;52.238;21.104;2022-12-01T08:10:25;23.58;;;15.27;;
67160;SDS011;54088;52.238;21.104;2022-12-01T08:12:51;22.85;;;15.43;;
67160;SDS011;54088;52.238;21.104;2022-12-01T08:15:16;21.48;;;14.85;;
67160;SDS011;54088;52.238;21.104;2022-12-01T08:17:42;22.52;;;16.48;;
67160;SDS011;54088;52.238;21.104;2022-12-01T08:20:08;20.73;;;13.82;;
67160;SDS011;54088;52.238;21.104;2022-12-01T08:22:34;23.55;;;16.25;;
67160;SDS011;54088;52.238;21.104;2022-12-01T08:24:59;23.60;;;15.20;;
67160;SDS011;54088;52.238;21.104;2022-12-01T08:27:25;22.40;;;13.93;;
67160;SDS011;54088;52.238;21.104;2022-12-01T08:29:51;22.50;;;14.13;;
67160;SDS011;54088;52.238;21.104;2022-12-01T08:32:16;20.52;;;13.57;;
67160;SDS011;54088;52.238;21.104;2022-12-01T08:34:42;21.98;;;14.52;;
67160;SDS011;54088;52.238;21.104;2022-12-01T08:37:08;21.35;;;15.52;;
67160;SDS011;54088;52.238;21.104;2022-12-01T08:39:34;22.70;;;14.75;;
67160;SDS011;54088;52.238;21.104;2022-12-01T08:42:00;22.35;;;15.20;;
67160;SDS011;54088;52.238;21.104;2022-12-01T08:44:25;23.70;;;15.48;;
67160;SDS011;54088;52.238;21.104;2022-12-01T08:46:51;24.23;;;15.13;;
67160;SDS011;54088;52.238;21.104;2022-12-01T08:49:17;21.50;;;13.73;;
67160;SDS011;54088;52.238;21.104;2022-12-01T08:51:42;22.38;;;15.90;;
67160;SDS011;54088;52.238;21.104;2022-12-01T08:54:08;22.90;;;14.85;;
67160;SDS011;54088;52.238;21.104;2022-12-01T08:56:37;22.40;;;15.10;;
67160;SDS011;54088;52.238;21.104;2022-12-01T08:59:04;22.77;;;15.18;;
67160;SDS011;54088;52.238;21.104;2022-12-01T09:01:30;24.63;;;15.45;;
67160;SDS011;54088;52.238;21.104;2022-12-01T09:03:59;19.83;;;14.02;;
67160;SDS011;54088;52.238;21.104;2022-12-01T09:09:05;20.98;;;15.00;;
67160;SDS011;54088;52.238;21.104;2022-12-01T09:11:31;21.98;;;14.57;;
67160;SDS011;54088;52.238;21.104;2022-12-01T09:13:57;23.77;;;14.88;;
67160;SDS011;54088;52.238;21.104;2022-12-01T09:16:23;26.90;;;16.70;;
67160;SDS011;54088;52.238;21.104;2022-12-01T09:18:49;25.83;;;16.20;;
67160;SDS011;54088;52.238;21.104;2022-12-01T09:21:16;25.13;;;16.25;;
67160;SDS011;54088;52.238;21.104;2022-12-01T09:23:44;22.65;;;15.57;;
67160;SDS011;54088;52.238;21.104;2022-12-01T09:26:10;27.90;;;17.98;;
67160;SDS011;54088;52.238;21.104;2022-12-01T09:28:42;27.42;;;17.38;;
67160;SDS011;54088;52.238;21.104;2022-12-01T09:31:09;27.70;;;17.63;;
67160;SDS011;54088;52.238;21.104;2022-12-01T09:33:36;32.30;;;17.65;;
67160;SDS011;54088;52.238;21.104;2022-12-01T09:36:03;30.85;;;18.17;;
67160;SDS011;54088;52.238;21.104;2022-12-01T09:38:30;29.65;;;18.40;;
67160;SDS011;54088;52.238;21.104;2022-12-01T09:41:01;30.13;;;18.23;;
67160;SDS011;54088;52.238;21.104;2022-12-01T09:43:44;27.75;;;16.85;;
67160;SDS011;54088;52.238;21.104;2022-12-01T09:46:31;32.00;;;19.33;;
67160;SDS011;54088;52.238;21.104;2022-12-01T09:49:01;28.85;;;18.20;;
67160;SDS011;54088;52.238;21.104;2022-12-01T09:51:28;28.15;;;19.20;;
67160;SDS011;54088;52.238;21.104;2022-12-01T09:53:58;27.33;;;17.67;;
67160;SDS011;54088;52.238;21.104;2022-12-01T09:56:26;29.10;;;17.38;;
67160;SDS011;54088;52.238;21.104;2022-12-01T09:58:56;28.38;;;16.90;;
67160;SDS011;54088;52.238;21.104;2022-12-01T10:01:36;28.50;;;17.02;;
67160;SDS011;54088;52.238;21.104;2022-12-01T10:04:10;26.63;;;17.15;;
67160;SDS011;54088;52.238;21.104;2022-12-01T10:12:23;29.40;;;16.60;;
67160;SDS011;54088;52.238;21.104;2022-12-01T10:14:55;31.92;;;20.08;;
67160;SDS011;54088;52.238;21.104;2022-12-01T10:20:28;29.13;;;16.58;;
67160;SDS011;54088;52.238;21.104;2022-12-01T10:23:19;27.10;;;17.55;;
67160;SDS011;54088;52.238;21.104;2022-12-01T10:28:56;30.88;;;19.92;;
67160;SDS011;54088;52.238;21.104;2022-12-01T10:31:38;32.80;;;19.05;;
67160;SDS011;54088;52.238;21.104;2022-12-01T10:34:14;33.47;;;20.38;;
67160;SDS011;54088;52.238;21.104;2022-12-01T10:36:43;37.58;;;21.42;;
67160;SDS011;54088;52.238;21.104;2022-12-01T10:39:13;40.45;;;24.10;;
67160;SDS011;54088;52.238;21.104;2022-12-01T10:41:42;38.50;;;22.77;;
67160;SDS011;54088;52.238;21.104;2022-12-01T10:44:08;41.67;;;23.23;;
67160;SDS011;54088;52.238;21.104;2022-12-01T10:47:07;41.28;;;23.65;;
67160;SDS011;54088;52.238;21.104;2022-12-01T10:49:36;46.33;;;25.73;;
67160;SDS011;54088;52.238;21.104;2022-12-01T10:52:04;43.22;;;24.55;;
67160;SDS011;54088;52.238;21.104;2022-12-01T10:54:32;42.88;;;24.85;;
67160;SDS011;54088;52.238;21.104;2022-12-01T10:57:00;50.88;;;27.92;;
67160;SDS011;54088;52.238;21.104;2022-12-01T11:01:55;43.65;;;23.63;;
67160;SDS011;54088;52.238;21.104;2022-12-01T11:07:18;40.58;;;23.00;;
67160;SDS011;54088;52.238;21.104;2022-12-01T11:10:38;43.95;;;23.25;;
67160;SDS011;54088;52.238;21.104;2022-12-01T11:12:39;42.85;;;23.98;;
67160;SDS011;54088;52.238;21.104;2022-12-01T11:15:06;46.75;;;24.48;;
67160;SDS011;54088;52.238;21.104;2022-12-01T11:17:41;45.83;;;25.45;;
67160;SDS011;54088;52.238;21.104;2022-12-01T11:23:15;46.00;;;24.20;;
67160;SDS011;54088;52.238;21.104;2022-12-01T11:26:00;43.80;;;23.75;;
67160;SDS011;54088;52.238;21.104;2022-12-01T11:31:16;43.88;;;24.40;;
67160;SDS011;54088;52.238;21.104;2022-12-01T11:33:44;40.30;;;22.02;;
67160;SDS011;54088;52.238;21.104;2022-12-01T11:37:00;38.95;;;21.95;;
67160;SDS011;54088;52.238;21.104;2022-12-01T11:39:19;47.25;;;24.00;;
67160;SDS011;54088;52.238;21.104;2022-12-01T11:41:53;41.10;;;22.80;;
67160;SDS011;54088;52.238;21.104;2022-12-01T11:44:20;40.35;;;21.02;;
67160;SDS011;54088;52.238;21.104;2022-12-01T11:46:46;41.80;;;22.80;;
67160;SDS011;54088;52.238;21.104;2022-12-01T11:49:17;38.97;;;23.35;;
67160;SDS011;54088;52.238;21.104;2022-12-01T11:51:44;38.47;;;20.42;;
67160;SDS011;54088;52.238;21.104;2022-12-01T11:54:14;40.25;;;20.58;;
67160;SDS011;54088;52.238;21.104;2022-12-01T11:56:48;39.47;;;21.00;;
67160;SDS011;54088;52.238;21.104;2022-12-01T11:59:22;39.28;;;22.65;;
67160;SDS011;54088;52.238;21.104;2022-12-01T12:15:27;40.00;;;22.98;;
67160;SDS011;54088;52.238;21.104;2022-12-01T12:18:47;41.35;;;20.65;;
67160;SDS011;54088;52.238;21.104;2022-12-01T12:27:24;36.47;;;20.75;;
67160;SDS011;54088;52.238;21.104;2022-12-01T12:30:28;40.92;;;21.45;;
67160;SDS011;54088;52.238;21.104;2022-12-01T12:37:55;41.42;;;21.38;;
67160;SDS011;54088;52.238;21.104;2022-12-01T12:43:28;31.85;;;17.15;;
67160;SDS011;54088;52.238;21.104;2022-12-01T12:51:31;28.02;;;16.33;;
67160;SDS011;54088;52.238;21.104;2022-12-01T12:56:43;22.42;;;13.10;;
67160;SDS011;54088;52.238;21.104;2022-12-01T12:59:23;23.83;;;11.73;;
67160;SDS011;54088;52.238;21.104;2022-12-01T13:04:41;23.45;;;12.82;;
67160;SDS011;54088;52.238;21.104;2022-12-01T13:09:56;21.95;;;11.05;;
67160;SDS011;54088;52.238;21.104;2022-12-01T13:12:28;19.85;;;11.35;;
67160;SDS011;54088;52.238;21.104;2022-12-01T13:14:59;18.85;;;10.98;;
67160;SDS011;54088;52.238;21.104;2022-12-01T13:17:31;18.95;;;11.02;;
67160;SDS011;54088;52.238;21.104;2022-12-01T13:20:00;18.05;;;11.02;;
67160;SDS011;54088;52.238;21.104;2022-12-01T13:22:31;20.15;;;11.07;;
67160;SDS011;54088;52.238;21.104;2022-12-01T13:24:59;20.17;;;10.60;;
67160;SDS011;54088;52.238;21.104;2022-12-01T13:27:26;19.20;;;10.88;;
67160;SDS011;54088;52.238;21.104;2022-12-01T13:29:57;17.52;;;9.60;;
67160;SDS011;54088;52.238;21.104;2022-12-01T13:34:57;17.80;;;9.45;;
67160;SDS011;54088;52.238;21.104;2022-12-01T13:37:28;18.08;;;10.20;;
67160;SDS011;54088;52.238;21.104;2022-12-01T13:40:05;16.73;;;9.32;;
67160;SDS011;54088;52.238;21.104;2022-12-01T13:42:49;17.40;;;9.77;;
67160;SDS011;54088;52.238;21.104;2022-12-01T13:45:21;14.60;;;9.18;;
67160;SDS011;54088;52.238;21.104;2022-12-01T13:47:53;17.63;;;9.80;;
67160;SDS011;54088;52.238;21.104;2022-12-01T13:56:04;15.32;;;8.90;;
67160;SDS011;54088;52.238;21.104;2022-12-01T13:58:40;15.32;;;8.90;;
67160;SDS011;54088;52.238;21.104;2022-12-01T14:11:56;18.30;;;11.35;;
67160;SDS011;54088;52.238;21.104;2022-12-01T14:14:27;16.70;;;10.07;;
67160;SDS011;54088;52.238;21.104;2022-12-01T14:17:00;17.25;;;9.77;;
67160;SDS011;54088;52.238;21.104;2022-12-01T14:19:34;16.30;;;10.93;;
67160;SDS011;54088;52.238;21.104;2022-12-01T14:22:06;18.23;;;11.27;;
67160;SDS011;54088;52.238;21.104;2022-12-01T14:27:50;16.95;;;10.15;;
67160;SDS011;54088;52.238;21.104;2022-12-01T14:38:50;16.77;;;10.00;;
67160;SDS011;54088;52.238;21.104;2022-12-01T14:41:24;15.50;;;8.95;;
67160;SDS011;54088;52.238;21.104;2022-12-01T14:49:25;18.42;;;10.65;;
67160;SDS011;54088;52.238;21.104;2022-12-01T14:51:57;16.50;;;9.60;;
67160;SDS011;54088;52.238;21.104;2022-12-01T14:54:30;17.75;;;10.43;;
67160;SDS011;54088;52.238;21.104;2022-12-01T14:57:00;15.80;;;9.13;;
67160;SDS011;54088;52.238;21.104;2022-12-01T14:59:28;17.30;;;10.02;;
67160;SDS011;54088;52.238;21.104;2022-12-01T15:01:55;18.02;;;9.85;;
67160;SDS011;54088;52.238;21.104;2022-12-01T15:04:32;16.75;;;10.05;;
67160;SDS011;54088;52.238;21.104;2022-12-01T15:07:22;17.50;;;10.70;;
67160;SDS011;54088;52.238;21.104;2022-12-01T15:09:57;18.60;;;10.20;;
67160;SDS011;54088;52.238;21.104;2022-12-01T15:12:26;17.85;;;10.82;;
67160;SDS011;54088;52.238;21.104;2022-12-01T15:14:53;18.98;;;11.93;;
67160;SDS011;54088;52.238;21.104;2022-12-01T15:17:28;16.35;;;10.82;;
67160;SDS011;54088;52.238;21.104;2022-12-01T15:19:58;17.77;;;10.45;;
67160;SDS011;54088;52.238;21.104;2022-12-01T15:22:26;15.00;;;9.68;;
67160;SDS011;54088;52.238;21.104;2022-12-01T15:24:55;17.98;;;11.60;;
67160;SDS011;54088;52.238;21.104;2022-12-01T15:27:38;17.63;;;10.82;;
67160;SDS011;54088;52.238;21.104;2022-12-01T15:30:05;17.00;;;10.75;;
67160;SDS011;54088;52.238;21.104;2022-12-01T15:32:34;15.65;;;9.25;;
67160;SDS011;54088;52.238;21.104;2022-12-01T15:35:09;17.42;;;10.93;;
67160;SDS011;54088;52.238;21.104;2022-12-01T15:37:44;19.55;;;11.70;;
67160;SDS011;54088;52.238;21.104;2022-12-01T15:40:12;19.73;;;12.65;;
67160;SDS011;54088;52.238;21.104;2022-12-01T15:52:55;23.10;;;15.93;;
67160;SDS011;54088;52.238;21.104;2022-12-01T15:55:24;23.10;;;14.15;;
67160;SDS011;54088;52.238;21.104;2022-12-01T15:58:01;22.10;;;14.25;;
67160;SDS011;54088;52.238;21.104;2022-12-01T16:00:31;24.85;;;15.07;;
67160;SDS011;54088;52.238;21.104;2022-12-01T16:02:58;29.38;;;17.65;;
67160;SDS011;54088;52.238;21.104;2022-12-01T16:05:29;24.75;;;14.85;;
67160;SDS011;54088;52.238;21.104;2022-12-01T16:07:56;24.17;;;15.77;;
67160;SDS011;54088;52.238;21.104;2022-12-01T16:10:36;23.70;;;15.95;;
67160;SDS011;54088;52.238;21.104;2022-12-01T16:21:32;32.20;;;19.13;;
67160;SDS011;54088;52.238;21.104;2022-12-01T16:24:25;27.30;;;17.95;;
67160;SDS011;54088;52.238;21.104;2022-12-01T16:26:56;27.48;;;17.70;;
67160;SDS011;54088;52.238;21.104;2022-12-01T16:29:25;27.48;;;16.98;;
67160;SDS011;54088;52.238;21.104;2022-12-01T16:31:52;27.55;;;17.63;;
67160;SDS011;54088;52.238;21.104;2022-12-01T16:34:21;28.95;;;17.60;;
67160;SDS011;54088;52.238;21.104;2022-12-01T16:36:47;30.15;;;19.27;;
67160;SDS011;54088;52.238;21.104;2022-12-01T16:39:14;29.83;;;20.13;;
67160;SDS011;54088;52.238;21.104;2022-12-01T16:41:40;28.30;;;18.42;;
67160;SDS011;54088;52.238;21.104;2022-12-01T16:46:37;31.35;;;18.67;;
67160;SDS011;54088;52.238;21.104;2022-12-01T16:49:04;30.95;;;19.27;;
67160;SDS011;54088;52.238;21.104;2022-12-01T16:51:30;30.08;;;17.42;;
67160;SDS011;54088;52.238;21.104;2022-12-01T16:53:57;27.98;;;16.77;;
67160;SDS011;54088;52.238;21.104;2022-12-01T16:56:23;30.35;;;17.90;;
67160;SDS011;54088;52.238;21.104;2022-12-01T16:58:49;29.90;;;18.88;;
67160;SDS011;54088;52.238;21.104;2022-12-01T17:01:14;30.15;;;19.13;;
67160;SDS011;54088;52.238;21.104;2022-12-01T17:03:40;29.60;;;17.65;;
67160;SDS011;54088;52.238;21.104;2022-12-01T17:06:06;29.83;;;16.70;;
67160;SDS011;54088;52.238;21.104;2022-12-01T17:08:32;27.30;;;16.92;;
67160;SDS011;54088;52.238;21.104;2022-12-01T17:10:58;27.38;;;15.77;;